sensor_id;sensor_type;location;lat;lon;timestamp;temperature;humidity
59146;DHT22;44928;53.074;6.646;2023-04-30T00:01:44;6.80;99.90
59146;DHT22;44928;53.074;6.646;2023-04-30T00:04:09;6.70;99.90
59146;DHT22;44928;53.074;6.646;2023-04-30T00:06:35;6.60;99.90
59146;DHT22;44928;53.074;6.646;2023-04-30T00:09:01;6.60;99.90
59146;DHT22;44928;53.074;6.646;2023-04-30T00:11:27;6.60;99.90
59146;DHT22;44928;53.074;6.646;2023-04-30T00:13:53;6.60;99.90
59146;DHT22;44928;53.074;6.646;2023-04-30T00:16:21;6.60;99.90
59146;DHT22;44928;53.074;6.646;2023-04-30T00:18:47;6.50;99.90
59146;DHT22;44928;53.074;6.646;2023-04-30T00:21:13;6.50;99.90
59146;DHT22;44928;53.074;6.646;2023-04-30T00:23:38;6.50;99.90
59146;DHT22;44928;53.074;6.646;2023-04-30T00:26:04;6.50;99.90
59146;DHT22;44928;53.074;6.646;2023-04-30T00:28:30;6.40;99.90
59146;DHT22;44928;53.074;6.646;2023-04-30T00:30:56;6.50;99.90
59146;DHT22;44928;53.074;6.646;2023-04-30T00:33:21;6.40;99.90
59146;DHT22;44928;53.074;6.646;2023-04-30T00:35:47;6.40;99.90
59146;DHT22;44928;53.074;6.646;2023-04-30T00:38:13;6.40;99.90
59146;DHT22;44928;53.074;6.646;2023-04-30T00:40:40;6.30;99.90
59146;DHT22;44928;53.074;6.646;2023-04-30T00:43:08;6.30;99.90
59146;DHT22;44928;53.074;6.646;2023-04-30T00:45:34;6.20;99.90
59146;DHT22;44928;53.074;6.646;2023-04-30T00:48:00;6.10;99.90
59146;DHT22;44928;53.074;6.646;2023-04-30T00:50:27;6.10;99.90
59146;DHT22;44928;53.074;6.646;2023-04-30T00:52:54;6.00;99.90
59146;DHT22;44928;53.074;6.646;2023-04-30T00:55:20;6.00;99.90
59146;DHT22;44928;53.074;6.646;2023-04-30T00:57:46;6.00;99.90
59146;DHT22;44928;53.074;6.646;2023-04-30T01:00:12;6.00;99.90
59146;DHT22;44928;53.074;6.646;2023-04-30T01:02:38;5.90;99.90
59146;DHT22;44928;53.074;6.646;2023-04-30T01:05:05;5.90;99.90
59146;DHT22;44928;53.074;6.646;2023-04-30T01:07:34;5.90;99.90
59146;DHT22;44928;53.074;6.646;2023-04-30T01:10:01;5.80;99.90
59146;DHT22;44928;53.074;6.646;2023-04-30T01:15:27;5.80;99.90
59146;DHT22;44928;53.074;6.646;2023-04-30T01:18:06;5.80;99.90
59146;DHT22;44928;53.074;6.646;2023-04-30T01:20:38;5.80;99.90
59146;DHT22;44928;53.074;6.646;2023-04-30T01:28:52;5.80;99.90
59146;DHT22;44928;53.074;6.646;2023-04-30T01:31:19;5.80;99.90
59146;DHT22;44928;53.074;6.646;2023-04-30T01:33:45;5.70;99.90
59146;DHT22;44928;53.074;6.646;2023-04-30T01:42:01;5.70;99.90
59146;DHT22;44928;53.074;6.646;2023-04-30T01:48:01;5.60;99.90
59146;DHT22;44928;53.074;6.646;2023-04-30T01:53:05;5.50;99.90
59146;DHT22;44928;53.074;6.646;2023-04-30T01:55:43;5.40;99.90
59146;DHT22;44928;53.074;6.646;2023-04-30T01:58:12;5.40;99.90
59146;DHT22;44928;53.074;6.646;2023-04-30T02:00:40;5.30;99.90
59146;DHT22;44928;53.074;6.646;2023-04-30T02:03:06;5.20;99.90
59146;DHT22;44928;53.074;6.646;2023-04-30T02:05:32;5.20;99.90
59146;DHT22;44928;53.074;6.646;2023-04-30T02:07:57;5.20;99.90
59146;DHT22;44928;53.074;6.646;2023-04-30T02:10:25;5.20;99.90
59146;DHT22;44928;53.074;6.646;2023-04-30T02:12:51;5.20;99.90
59146;DHT22;44928;53.074;6.646;2023-04-30T02:15:18;5.20;99.90
59146;DHT22;44928;53.074;6.646;2023-04-30T02:17:43;5.20;99.90
59146;DHT22;44928;53.074;6.646;2023-04-30T02:20:10;5.20;99.90
59146;DHT22;44928;53.074;6.646;2023-04-30T02:22:36;5.20;99.90
59146;DHT22;44928;53.074;6.646;2023-04-30T02:25:02;5.20;99.90
59146;DHT22;44928;53.074;6.646;2023-04-30T02:27:30;5.10;99.90
59146;DHT22;44928;53.074;6.646;2023-04-30T02:29:56;5.20;99.90
59146;DHT22;44928;53.074;6.646;2023-04-30T02:32:22;5.10;99.90
59146;DHT22;44928;53.074;6.646;2023-04-30T02:34:48;5.10;99.90
59146;DHT22;44928;53.074;6.646;2023-04-30T02:37:14;5.10;99.90
59146;DHT22;44928;53.074;6.646;2023-04-30T02:39:40;5.10;99.90
59146;DHT22;44928;53.074;6.646;2023-04-30T02:42:06;5.10;99.90
59146;DHT22;44928;53.074;6.646;2023-04-30T02:44:33;5.10;99.90
59146;DHT22;44928;53.074;6.646;2023-04-30T02:46:59;5.10;99.90
59146;DHT22;44928;53.074;6.646;2023-04-30T02:49:25;5.10;99.90
59146;DHT22;44928;53.074;6.646;2023-04-30T02:51:51;5.10;99.90
59146;DHT22;44928;53.074;6.646;2023-04-30T02:54:17;5.00;99.90
59146;DHT22;44928;53.074;6.646;2023-04-30T02:56:44;5.00;99.90
59146;DHT22;44928;53.074;6.646;2023-04-30T02:59:09;5.00;99.90
59146;DHT22;44928;53.074;6.646;2023-04-30T03:01:35;5.00;99.90
59146;DHT22;44928;53.074;6.646;2023-04-30T03:04:01;5.00;99.90
59146;DHT22;44928;53.074;6.646;2023-04-30T03:06:31;5.00;99.90
59146;DHT22;44928;53.074;6.646;2023-04-30T03:08:57;5.00;99.90
59146;DHT22;44928;53.074;6.646;2023-04-30T03:11:23;5.00;99.90
59146;DHT22;44928;53.074;6.646;2023-04-30T03:13:48;5.00;99.90
59146;DHT22;44928;53.074;6.646;2023-04-30T03:16:18;5.00;99.90
59146;DHT22;44928;53.074;6.646;2023-04-30T03:18:45;4.90;99.90
59146;DHT22;44928;53.074;6.646;2023-04-30T03:21:11;4.90;99.90
59146;DHT22;44928;53.074;6.646;2023-04-30T03:23:37;4.90;99.90
59146;DHT22;44928;53.074;6.646;2023-04-30T03:26:03;4.90;99.90
59146;DHT22;44928;53.074;6.646;2023-04-30T03:28:28;4.80;99.90
59146;DHT22;44928;53.074;6.646;2023-04-30T03:30:54;4.80;99.90
59146;DHT22;44928;53.074;6.646;2023-04-30T03:33:20;4.80;99.90
59146;DHT22;44928;53.074;6.646;2023-04-30T03:35:46;4.80;99.90
59146;DHT22;44928;53.074;6.646;2023-04-30T03:38:12;4.80;99.90
59146;DHT22;44928;53.074;6.646;2023-04-30T03:40:37;4.80;99.90
59146;DHT22;44928;53.074;6.646;2023-04-30T03:43:03;4.80;99.90
59146;DHT22;44928;53.074;6.646;2023-04-30T03:45:29;4.80;99.90
59146;DHT22;44928;53.074;6.646;2023-04-30T03:47:55;4.80;99.90
59146;DHT22;44928;53.074;6.646;2023-04-30T03:50:21;4.90;99.90
59146;DHT22;44928;53.074;6.646;2023-04-30T03:52:47;4.80;99.90
59146;DHT22;44928;53.074;6.646;2023-04-30T03:55:13;4.90;99.90
59146;DHT22;44928;53.074;6.646;2023-04-30T03:57:39;4.80;99.90
59146;DHT22;44928;53.074;6.646;2023-04-30T04:00:08;4.90;99.90
59146;DHT22;44928;53.074;6.646;2023-04-30T04:02:40;4.90;99.90
59146;DHT22;44928;53.074;6.646;2023-04-30T04:05:06;4.90;99.90
59146;DHT22;44928;53.074;6.646;2023-04-30T04:07:32;4.90;99.90
59146;DHT22;44928;53.074;6.646;2023-04-30T04:09:58;4.90;99.90
59146;DHT22;44928;53.074;6.646;2023-04-30T04:12:24;4.90;99.90
59146;DHT22;44928;53.074;6.646;2023-04-30T04:14:50;4.90;99.90
59146;DHT22;44928;53.074;6.646;2023-04-30T04:17:15;4.90;99.90
59146;DHT22;44928;53.074;6.646;2023-04-30T04:19:41;4.80;99.90
59146;DHT22;44928;53.074;6.646;2023-04-30T04:22:07;4.80;99.90
59146;DHT22;44928;53.074;6.646;2023-04-30T04:24:33;4.70;99.90
59146;DHT22;44928;53.074;6.646;2023-04-30T04:26:59;4.60;99.90
59146;DHT22;44928;53.074;6.646;2023-04-30T04:29:27;4.60;99.90
59146;DHT22;44928;53.074;6.646;2023-04-30T04:31:53;4.60;99.90
59146;DHT22;44928;53.074;6.646;2023-04-30T04:34:20;4.60;99.90
59146;DHT22;44928;53.074;6.646;2023-04-30T04:36:45;4.50;99.90
59146;DHT22;44928;53.074;6.646;2023-04-30T04:39:12;4.50;99.90
59146;DHT22;44928;53.074;6.646;2023-04-30T04:41:38;4.50;99.90
59146;DHT22;44928;53.074;6.646;2023-04-30T04:44:03;4.50;99.90
59146;DHT22;44928;53.074;6.646;2023-04-30T04:46:30;4.60;99.90
59146;DHT22;44928;53.074;6.646;2023-04-30T04:48:57;4.60;99.90
59146;DHT22;44928;53.074;6.646;2023-04-30T04:51:23;4.60;99.90
59146;DHT22;44928;53.074;6.646;2023-04-30T04:53:49;4.60;99.90
59146;DHT22;44928;53.074;6.646;2023-04-30T04:56:15;4.60;99.90
59146;DHT22;44928;53.074;6.646;2023-04-30T04:58:41;4.60;99.90
59146;DHT22;44928;53.074;6.646;2023-04-30T05:01:07;4.60;99.90
59146;DHT22;44928;53.074;6.646;2023-04-30T05:03:34;4.60;99.90
59146;DHT22;44928;53.074;6.646;2023-04-30T05:06:03;4.60;99.90
59146;DHT22;44928;53.074;6.646;2023-04-30T05:08:29;4.70;99.90
59146;DHT22;44928;53.074;6.646;2023-04-30T05:10:55;4.70;99.90
59146;DHT22;44928;53.074;6.646;2023-04-30T05:13:21;4.70;99.90
59146;DHT22;44928;53.074;6.646;2023-04-30T05:15:51;4.70;99.90
59146;DHT22;44928;53.074;6.646;2023-04-30T05:18:17;4.70;99.90
59146;DHT22;44928;53.074;6.646;2023-04-30T05:20:43;4.70;99.90
59146;DHT22;44928;53.074;6.646;2023-04-30T05:23:09;4.80;99.90
59146;DHT22;44928;53.074;6.646;2023-04-30T05:25:35;4.80;99.90
59146;DHT22;44928;53.074;6.646;2023-04-30T05:28:01;4.90;99.90
59146;DHT22;44928;53.074;6.646;2023-04-30T05:30:28;4.90;99.90
59146;DHT22;44928;53.074;6.646;2023-04-30T05:32:54;5.00;99.90
59146;DHT22;44928;53.074;6.646;2023-04-30T05:35:21;5.00;99.90
59146;DHT22;44928;53.074;6.646;2023-04-30T05:37:47;5.10;99.90
59146;DHT22;44928;53.074;6.646;2023-04-30T05:40:13;5.10;99.90
59146;DHT22;44928;53.074;6.646;2023-04-30T05:42:38;5.20;99.90
59146;DHT22;44928;53.074;6.646;2023-04-30T05:45:06;5.20;99.90
59146;DHT22;44928;53.074;6.646;2023-04-30T05:47:32;5.30;99.90
59146;DHT22;44928;53.074;6.646;2023-04-30T05:49:58;5.40;99.90
59146;DHT22;44928;53.074;6.646;2023-04-30T05:52:24;5.50;99.90
59146;DHT22;44928;53.074;6.646;2023-04-30T05:54:50;5.60;99.90
59146;DHT22;44928;53.074;6.646;2023-04-30T05:57:16;5.70;99.90
59146;DHT22;44928;53.074;6.646;2023-04-30T05:59:41;5.80;99.90
59146;DHT22;44928;53.074;6.646;2023-04-30T06:02:08;5.90;99.90
59146;DHT22;44928;53.074;6.646;2023-04-30T06:04:33;6.00;99.90
59146;DHT22;44928;53.074;6.646;2023-04-30T06:06:59;6.20;99.90
59146;DHT22;44928;53.074;6.646;2023-04-30T06:09:25;6.20;99.90
59146;DHT22;44928;53.074;6.646;2023-04-30T06:11:51;6.40;99.90
59146;DHT22;44928;53.074;6.646;2023-04-30T06:14:17;6.50;99.90
59146;DHT22;44928;53.074;6.646;2023-04-30T06:16:44;6.60;99.90
59146;DHT22;44928;53.074;6.646;2023-04-30T06:19:11;6.70;99.90
59146;DHT22;44928;53.074;6.646;2023-04-30T06:21:37;6.80;99.90
59146;DHT22;44928;53.074;6.646;2023-04-30T06:24:03;6.90;99.90
59146;DHT22;44928;53.074;6.646;2023-04-30T06:26:29;7.00;99.90
59146;DHT22;44928;53.074;6.646;2023-04-30T06:28:55;7.10;99.90
59146;DHT22;44928;53.074;6.646;2023-04-30T06:31:21;7.20;99.90
59146;DHT22;44928;53.074;6.646;2023-04-30T06:33:47;7.20;99.90
59146;DHT22;44928;53.074;6.646;2023-04-30T06:36:14;7.30;99.90
59146;DHT22;44928;53.074;6.646;2023-04-30T06:38:40;7.40;99.90
59146;DHT22;44928;53.074;6.646;2023-04-30T06:41:07;7.50;99.90
59146;DHT22;44928;53.074;6.646;2023-04-30T06:43:33;7.70;99.90
59146;DHT22;44928;53.074;6.646;2023-04-30T06:45:59;7.80;99.90
59146;DHT22;44928;53.074;6.646;2023-04-30T06:48:25;7.90;99.90
59146;DHT22;44928;53.074;6.646;2023-04-30T06:50:51;8.00;99.90
59146;DHT22;44928;53.074;6.646;2023-04-30T06:53:17;8.10;99.90
59146;DHT22;44928;53.074;6.646;2023-04-30T06:55:44;8.20;99.90
59146;DHT22;44928;53.074;6.646;2023-04-30T06:58:11;8.20;99.90
59146;DHT22;44928;53.074;6.646;2023-04-30T07:00:37;8.30;99.90
59146;DHT22;44928;53.074;6.646;2023-04-30T07:03:02;8.30;99.90
59146;DHT22;44928;53.074;6.646;2023-04-30T07:05:29;8.40;99.90
59146;DHT22;44928;53.074;6.646;2023-04-30T07:07:56;8.40;99.90
59146;DHT22;44928;53.074;6.646;2023-04-30T07:10:22;8.40;99.90
59146;DHT22;44928;53.074;6.646;2023-04-30T07:12:48;8.40;99.90
59146;DHT22;44928;53.074;6.646;2023-04-30T07:15:14;8.40;99.90
59146;DHT22;44928;53.074;6.646;2023-04-30T07:17:40;8.50;99.90
59146;DHT22;44928;53.074;6.646;2023-04-30T07:20:09;8.50;99.90
59146;DHT22;44928;53.074;6.646;2023-04-30T07:22:35;8.50;99.90
59146;DHT22;44928;53.074;6.646;2023-04-30T07:25:00;8.60;99.90
59146;DHT22;44928;53.074;6.646;2023-04-30T07:27:27;8.60;99.90
59146;DHT22;44928;53.074;6.646;2023-04-30T07:29:53;8.60;99.90
59146;DHT22;44928;53.074;6.646;2023-04-30T07:32:19;8.70;99.90
59146;DHT22;44928;53.074;6.646;2023-04-30T07:34:45;8.70;99.90
59146;DHT22;44928;53.074;6.646;2023-04-30T07:37:11;8.80;99.90
59146;DHT22;44928;53.074;6.646;2023-04-30T07:39:38;8.90;99.90
59146;DHT22;44928;53.074;6.646;2023-04-30T07:42:05;9.00;99.90
59146;DHT22;44928;53.074;6.646;2023-04-30T07:44:31;9.10;99.90
59146;DHT22;44928;53.074;6.646;2023-04-30T07:46:57;9.10;99.90
59146;DHT22;44928;53.074;6.646;2023-04-30T07:49:24;9.20;99.90
59146;DHT22;44928;53.074;6.646;2023-04-30T07:51:50;9.30;99.90
59146;DHT22;44928;53.074;6.646;2023-04-30T07:54:16;9.40;99.90
59146;DHT22;44928;53.074;6.646;2023-04-30T07:56:42;9.50;99.90
59146;DHT22;44928;53.074;6.646;2023-04-30T07:59:08;9.50;99.90
59146;DHT22;44928;53.074;6.646;2023-04-30T08:01:33;9.60;99.90
59146;DHT22;44928;53.074;6.646;2023-04-30T08:03:59;9.60;99.90
59146;DHT22;44928;53.074;6.646;2023-04-30T08:06:25;9.70;99.90
59146;DHT22;44928;53.074;6.646;2023-04-30T08:08:54;9.70;99.90
59146;DHT22;44928;53.074;6.646;2023-04-30T08:11:20;9.80;99.90
59146;DHT22;44928;53.074;6.646;2023-04-30T08:13:46;9.80;99.90
59146;DHT22;44928;53.074;6.646;2023-04-30T08:16:11;9.80;99.90
59146;DHT22;44928;53.074;6.646;2023-04-30T08:18:37;9.90;99.90
59146;DHT22;44928;53.074;6.646;2023-04-30T08:21:04;9.90;99.90
59146;DHT22;44928;53.074;6.646;2023-04-30T08:23:30;10.00;99.90
59146;DHT22;44928;53.074;6.646;2023-04-30T08:25:56;10.10;99.90
59146;DHT22;44928;53.074;6.646;2023-04-30T08:28:22;10.20;99.90
59146;DHT22;44928;53.074;6.646;2023-04-30T08:30:47;10.20;99.90
59146;DHT22;44928;53.074;6.646;2023-04-30T08:33:13;10.30;99.90
59146;DHT22;44928;53.074;6.646;2023-04-30T08:35:39;10.30;99.90
59146;DHT22;44928;53.074;6.646;2023-04-30T08:38:05;10.40;99.90
59146;DHT22;44928;53.074;6.646;2023-04-30T08:40:34;10.50;99.90
59146;DHT22;44928;53.074;6.646;2023-04-30T08:43:07;10.50;99.90
59146;DHT22;44928;53.074;6.646;2023-04-30T08:45:35;10.60;99.90
59146;DHT22;44928;53.074;6.646;2023-04-30T08:48:02;10.60;99.90
59146;DHT22;44928;53.074;6.646;2023-04-30T08:50:29;10.70;99.90
59146;DHT22;44928;53.074;6.646;2023-04-30T08:52:59;10.80;99.90
59146;DHT22;44928;53.074;6.646;2023-04-30T08:55:26;11.00;99.90
59146;DHT22;44928;53.074;6.646;2023-04-30T08:57:52;11.20;99.90
59146;DHT22;44928;53.074;6.646;2023-04-30T09:00:18;11.30;99.90
59146;DHT22;44928;53.074;6.646;2023-04-30T09:02:45;11.40;99.90
59146;DHT22;44928;53.074;6.646;2023-04-30T09:05:13;11.40;99.90
59146;DHT22;44928;53.074;6.646;2023-04-30T09:07:43;11.60;99.90
59146;DHT22;44928;53.074;6.646;2023-04-30T09:10:20;11.70;99.90
59146;DHT22;44928;53.074;6.646;2023-04-30T09:13:07;11.80;99.90
59146;DHT22;44928;53.074;6.646;2023-04-30T09:15:34;11.90;99.90
59146;DHT22;44928;53.074;6.646;2023-04-30T09:18:11;12.00;99.90
59146;DHT22;44928;53.074;6.646;2023-04-30T09:20:37;12.10;99.90
59146;DHT22;44928;53.074;6.646;2023-04-30T09:23:05;12.10;99.90
59146;DHT22;44928;53.074;6.646;2023-04-30T09:25:39;12.10;99.90
59146;DHT22;44928;53.074;6.646;2023-04-30T09:28:13;12.30;99.90
59146;DHT22;44928;53.074;6.646;2023-04-30T09:30:40;12.30;99.90
59146;DHT22;44928;53.074;6.646;2023-04-30T09:33:06;12.40;99.90
59146;DHT22;44928;53.074;6.646;2023-04-30T09:35:33;12.40;99.90
59146;DHT22;44928;53.074;6.646;2023-04-30T09:38:00;12.50;99.90
59146;DHT22;44928;53.074;6.646;2023-04-30T09:40:38;12.60;99.90
59146;DHT22;44928;53.074;6.646;2023-04-30T09:43:05;12.60;99.90
59146;DHT22;44928;53.074;6.646;2023-04-30T09:48:08;12.60;99.90
59146;DHT22;44928;53.074;6.646;2023-04-30T09:50:38;12.60;99.90
59146;DHT22;44928;53.074;6.646;2023-04-30T09:53:11;12.70;99.90
59146;DHT22;44928;53.074;6.646;2023-04-30T09:55:47;12.80;99.90
59146;DHT22;44928;53.074;6.646;2023-04-30T09:58:15;13.00;99.90
59146;DHT22;44928;53.074;6.646;2023-04-30T10:00:45;13.20;99.90
59146;DHT22;44928;53.074;6.646;2023-04-30T10:03:13;13.40;99.90
59146;DHT22;44928;53.074;6.646;2023-04-30T10:05:40;13.40;99.90
59146;DHT22;44928;53.074;6.646;2023-04-30T10:08:27;13.40;99.90
59146;DHT22;44928;53.074;6.646;2023-04-30T10:11:04;13.50;99.90
59146;DHT22;44928;53.074;6.646;2023-04-30T10:13:45;13.60;99.90
59146;DHT22;44928;53.074;6.646;2023-04-30T10:18:52;13.90;99.90
59146;DHT22;44928;53.074;6.646;2023-04-30T10:21:23;13.90;99.90
59146;DHT22;44928;53.074;6.646;2023-04-30T10:23:53;14.10;99.90
59146;DHT22;44928;53.074;6.646;2023-04-30T10:26:19;14.30;99.90
59146;DHT22;44928;53.074;6.646;2023-04-30T10:28:46;14.40;99.90
59146;DHT22;44928;53.074;6.646;2023-04-30T10:31:13;14.60;99.90
59146;DHT22;44928;53.074;6.646;2023-04-30T10:34:01;14.70;99.90
59146;DHT22;44928;53.074;6.646;2023-04-30T10:36:48;15.00;99.90
59146;DHT22;44928;53.074;6.646;2023-04-30T10:39:20;15.30;99.90
59146;DHT22;44928;53.074;6.646;2023-04-30T10:41:46;15.20;99.80
59146;DHT22;44928;53.074;6.646;2023-04-30T10:44:14;15.30;99.90
59146;DHT22;44928;53.074;6.646;2023-04-30T10:46:40;15.50;99.80
59146;DHT22;44928;53.074;6.646;2023-04-30T10:49:06;15.60;98.30
59146;DHT22;44928;53.074;6.646;2023-04-30T10:51:49;15.80;97.70
59146;DHT22;44928;53.074;6.646;2023-04-30T10:54:28;16.10;97.60
59146;DHT22;44928;53.074;6.646;2023-04-30T10:57:08;16.30;93.60
59146;DHT22;44928;53.074;6.646;2023-04-30T10:59:41;16.30;95.60
59146;DHT22;44928;53.074;6.646;2023-04-30T11:02:10;16.40;95.10
59146;DHT22;44928;53.074;6.646;2023-04-30T11:07:30;16.30;92.40
59146;DHT22;44928;53.074;6.646;2023-04-30T11:09:56;16.30;93.90
59146;DHT22;44928;53.074;6.646;2023-04-30T11:12:25;16.30;94.70
59146;DHT22;44928;53.074;6.646;2023-04-30T11:17:27;16.40;95.30
59146;DHT22;44928;53.074;6.646;2023-04-30T11:19:54;16.60;95.40
59146;DHT22;44928;53.074;6.646;2023-04-30T11:22:23;16.80;93.20
59146;DHT22;44928;53.074;6.646;2023-04-30T11:27:32;17.10;90.40
59146;DHT22;44928;53.074;6.646;2023-04-30T11:29:59;17.40;90.40
59146;DHT22;44928;53.074;6.646;2023-04-30T11:32:30;17.60;90.80
59146;DHT22;44928;53.074;6.646;2023-04-30T11:34:57;17.80;82.30
59146;DHT22;44928;53.074;6.646;2023-04-30T11:37:39;17.80;80.40
59146;DHT22;44928;53.074;6.646;2023-04-30T11:40:08;17.80;82.90
59146;DHT22;44928;53.074;6.646;2023-04-30T11:42:38;18.10;85.60
59146;DHT22;44928;53.074;6.646;2023-04-30T11:45:12;18.20;80.70
59146;DHT22;44928;53.074;6.646;2023-04-30T11:47:43;18.30;79.30
59146;DHT22;44928;53.074;6.646;2023-04-30T11:50:12;18.40;76.50
59146;DHT22;44928;53.074;6.646;2023-04-30T11:52:39;18.50;78.50
59146;DHT22;44928;53.074;6.646;2023-04-30T11:55:16;18.80;78.30
59146;DHT22;44928;53.074;6.646;2023-04-30T11:57:47;19.00;78.30
59146;DHT22;44928;53.074;6.646;2023-04-30T12:00:14;19.10;73.30
59146;DHT22;44928;53.074;6.646;2023-04-30T12:02:42;19.10;71.10
59146;DHT22;44928;53.074;6.646;2023-04-30T12:05:16;19.10;71.00
59146;DHT22;44928;53.074;6.646;2023-04-30T12:07:49;19.10;71.40
59146;DHT22;44928;53.074;6.646;2023-04-30T12:10:17;19.10;70.00
59146;DHT22;44928;53.074;6.646;2023-04-30T12:12:43;19.20;69.60
59146;DHT22;44928;53.074;6.646;2023-04-30T12:15:11;19.10;68.90
59146;DHT22;44928;53.074;6.646;2023-04-30T12:17:37;19.10;69.00
59146;DHT22;44928;53.074;6.646;2023-04-30T12:20:03;19.10;69.70
59146;DHT22;44928;53.074;6.646;2023-04-30T12:22:29;19.20;69.80
59146;DHT22;44928;53.074;6.646;2023-04-30T12:24:58;19.10;69.00
59146;DHT22;44928;53.074;6.646;2023-04-30T12:27:25;19.10;68.70
59146;DHT22;44928;53.074;6.646;2023-04-30T12:29:52;19.10;69.20
59146;DHT22;44928;53.074;6.646;2023-04-30T12:32:21;19.10;69.60
59146;DHT22;44928;53.074;6.646;2023-04-30T12:34:47;19.20;70.30
59146;DHT22;44928;53.074;6.646;2023-04-30T12:37:16;19.20;70.00
59146;DHT22;44928;53.074;6.646;2023-04-30T12:39:42;19.30;68.60
59146;DHT22;44928;53.074;6.646;2023-04-30T12:42:08;19.40;67.70
59146;DHT22;44928;53.074;6.646;2023-04-30T12:44:43;19.40;68.60
59146;DHT22;44928;53.074;6.646;2023-04-30T12:47:09;19.40;69.30
59146;DHT22;44928;53.074;6.646;2023-04-30T12:49:35;19.40;68.70
59146;DHT22;44928;53.074;6.646;2023-04-30T12:52:09;19.40;67.10
59146;DHT22;44928;53.074;6.646;2023-04-30T12:54:36;19.50;68.10
59146;DHT22;44928;53.074;6.646;2023-04-30T12:57:07;19.60;68.30
59146;DHT22;44928;53.074;6.646;2023-04-30T13:02:22;19.60;67.30
59146;DHT22;44928;53.074;6.646;2023-04-30T13:04:48;19.50;65.30
59146;DHT22;44928;53.074;6.646;2023-04-30T13:07:14;19.40;65.40
59146;DHT22;44928;53.074;6.646;2023-04-30T13:09:40;19.30;67.20
59146;DHT22;44928;53.074;6.646;2023-04-30T13:12:06;19.40;64.90
59146;DHT22;44928;53.074;6.646;2023-04-30T13:14:33;19.50;65.60
59146;DHT22;44928;53.074;6.646;2023-04-30T13:16:59;19.50;65.40
59146;DHT22;44928;53.074;6.646;2023-04-30T13:19:25;19.60;66.50
59146;DHT22;44928;53.074;6.646;2023-04-30T13:21:51;19.70;66.30
59146;DHT22;44928;53.074;6.646;2023-04-30T13:24:17;19.90;65.80
59146;DHT22;44928;53.074;6.646;2023-04-30T13:26:43;20.10;64.70
59146;DHT22;44928;53.074;6.646;2023-04-30T13:29:10;20.20;62.10
59146;DHT22;44928;53.074;6.646;2023-04-30T13:31:35;20.10;63.10
59146;DHT22;44928;53.074;6.646;2023-04-30T13:34:01;20.00;63.70
59146;DHT22;44928;53.074;6.646;2023-04-30T13:36:27;19.90;64.20
59146;DHT22;44928;53.074;6.646;2023-04-30T13:38:54;19.80;64.10
59146;DHT22;44928;53.074;6.646;2023-04-30T13:41:20;19.70;63.90
59146;DHT22;44928;53.074;6.646;2023-04-30T13:43:47;19.80;64.50
59146;DHT22;44928;53.074;6.646;2023-04-30T13:46:13;19.90;64.30
59146;DHT22;44928;53.074;6.646;2023-04-30T13:48:40;20.00;63.90
59146;DHT22;44928;53.074;6.646;2023-04-30T13:51:05;20.20;63.40
59146;DHT22;44928;53.074;6.646;2023-04-30T13:53:31;20.50;62.90
59146;DHT22;44928;53.074;6.646;2023-04-30T13:55:58;20.70;61.50
59146;DHT22;44928;53.074;6.646;2023-04-30T13:58:24;20.90;61.40
59146;DHT22;44928;53.074;6.646;2023-04-30T14:00:50;21.00;61.50
59146;DHT22;44928;53.074;6.646;2023-04-30T14:03:17;21.10;61.40
59146;DHT22;44928;53.074;6.646;2023-04-30T14:05:43;21.30;61.20
59146;DHT22;44928;53.074;6.646;2023-04-30T14:08:09;21.50;64.20
59146;DHT22;44928;53.074;6.646;2023-04-30T14:10:35;21.40;59.80
59146;DHT22;44928;53.074;6.646;2023-04-30T14:13:02;21.50;59.80
59146;DHT22;44928;53.074;6.646;2023-04-30T14:15:29;21.40;58.00
59146;DHT22;44928;53.074;6.646;2023-04-30T14:17:57;21.40;58.70
59146;DHT22;44928;53.074;6.646;2023-04-30T14:20:23;21.50;58.00
59146;DHT22;44928;53.074;6.646;2023-04-30T14:22:49;21.40;57.30
59146;DHT22;44928;53.074;6.646;2023-04-30T14:25:15;21.50;55.70
59146;DHT22;44928;53.074;6.646;2023-04-30T14:27:41;21.50;57.40
59146;DHT22;44928;53.074;6.646;2023-04-30T14:30:08;21.60;57.20
59146;DHT22;44928;53.074;6.646;2023-04-30T14:32:34;21.80;58.60
59146;DHT22;44928;53.074;6.646;2023-04-30T14:35:01;21.90;57.70
59146;DHT22;44928;53.074;6.646;2023-04-30T14:37:27;22.00;56.10
59146;DHT22;44928;53.074;6.646;2023-04-30T14:39:54;22.10;54.90
59146;DHT22;44928;53.074;6.646;2023-04-30T14:42:20;21.90;54.50
59146;DHT22;44928;53.074;6.646;2023-04-30T14:44:45;21.70;54.80
59146;DHT22;44928;53.074;6.646;2023-04-30T14:47:11;21.60;55.30
59146;DHT22;44928;53.074;6.646;2023-04-30T14:49:38;21.70;55.20
59146;DHT22;44928;53.074;6.646;2023-04-30T14:52:04;21.70;54.70
59146;DHT22;44928;53.074;6.646;2023-04-30T14:54:29;21.60;54.30
59146;DHT22;44928;53.074;6.646;2023-04-30T14:56:55;21.50;54.00
59146;DHT22;44928;53.074;6.646;2023-04-30T14:59:21;21.50;54.50
59146;DHT22;44928;53.074;6.646;2023-04-30T15:01:47;21.50;54.60
59146;DHT22;44928;53.074;6.646;2023-04-30T15:04:13;21.60;54.40
59146;DHT22;44928;53.074;6.646;2023-04-30T15:06:39;21.50;53.80
59146;DHT22;44928;53.074;6.646;2023-04-30T15:09:05;21.40;52.50
59146;DHT22;44928;53.074;6.646;2023-04-30T15:11:31;21.10;53.50
59146;DHT22;44928;53.074;6.646;2023-04-30T15:13:56;21.00;54.80
59146;DHT22;44928;53.074;6.646;2023-04-30T15:16:23;21.00;55.50
59146;DHT22;44928;53.074;6.646;2023-04-30T15:18:48;20.90;55.60
59146;DHT22;44928;53.074;6.646;2023-04-30T15:21:15;20.90;55.70
59146;DHT22;44928;53.074;6.646;2023-04-30T15:23:40;20.70;55.30
59146;DHT22;44928;53.074;6.646;2023-04-30T15:26:06;20.50;55.30
59146;DHT22;44928;53.074;6.646;2023-04-30T15:28:32;20.40;56.60
59146;DHT22;44928;53.074;6.646;2023-04-30T15:30:59;20.40;56.80
59146;DHT22;44928;53.074;6.646;2023-04-30T15:33:29;20.40;56.40
59146;DHT22;44928;53.074;6.646;2023-04-30T15:35:55;20.50;56.10
59146;DHT22;44928;53.074;6.646;2023-04-30T15:38:22;20.60;55.80
59146;DHT22;44928;53.074;6.646;2023-04-30T15:40:47;20.60;55.10
59146;DHT22;44928;53.074;6.646;2023-04-30T15:43:13;20.60;55.80
59146;DHT22;44928;53.074;6.646;2023-04-30T15:45:39;20.60;55.90
59146;DHT22;44928;53.074;6.646;2023-04-30T15:48:05;20.60;55.90
59146;DHT22;44928;53.074;6.646;2023-04-30T15:50:31;20.70;56.20
59146;DHT22;44928;53.074;6.646;2023-04-30T15:52:57;20.70;55.80
59146;DHT22;44928;53.074;6.646;2023-04-30T15:55:23;20.70;54.40
59146;DHT22;44928;53.074;6.646;2023-04-30T15:57:49;20.60;54.00
59146;DHT22;44928;53.074;6.646;2023-04-30T16:00:16;20.40;53.50
59146;DHT22;44928;53.074;6.646;2023-04-30T16:02:42;20.30;54.60
59146;DHT22;44928;53.074;6.646;2023-04-30T16:05:08;20.40;55.30
59146;DHT22;44928;53.074;6.646;2023-04-30T16:07:35;20.50;54.50
59146;DHT22;44928;53.074;6.646;2023-04-30T16:10:01;20.60;54.60
59146;DHT22;44928;53.074;6.646;2023-04-30T16:12:27;20.50;53.40
59146;DHT22;44928;53.074;6.646;2023-04-30T16:14:53;20.60;53.80